Time;durP1;ratioP1;P1;durP2;ratioP2;P2;SDS_P1;SDS_P2;PMS_P1;PMS_P2;Temp;Humidity;BMP_temperature;BMP_pressure;BME280_temperature;BME280_humidity;BME280_pressure;Samples;Min_cycle;Max_cycle;Signal;HPM_P1;HPM_P2
2024/01/07 00:00:12;;;;;;;3.80;3.40;;;;;;;6.72;79.10;99722.28;10327334;28;20439;-66
2024/01/07 00:05:13;;;;;;;2.95;2.65;;;;;;;6.87;79.88;99743.28;10333416;28;20065;-65
2024/01/07 00:10:15;;;;;;;4.28;3.47;;;;;;;6.88;78.66;99731.75;10321276;28;20102;-66
2024/01/07 00:15:19;;;;;;;4.23;3.40;;;;;;;7.02;78.20;99744.78;10297279;28;20050;-66
2024/01/07 00:20:21;;;;;;;4.05;3.38;;;;;;;6.86;78.33;99745.09;10315597;28;20150;-67
2024/01/07 00:25:22;;;;;;;3.50;3.20;;;;;;;6.61;79.59;99746.03;10329995;28;20345;-66
2024/01/07 00:30:24;;;;;;;4.45;2.63;;;;;;;6.33;80.98;99758.56;10328923;28;20403;-66
2024/01/07 00:35:25;;;;;;;3.63;2.95;;;;;;;6.70;79.57;99748.00;10319095;28;20054;-67
2024/01/07 00:40:28;;;;;;;3.22;2.63;;;;;;;6.67;79.07;99758.78;10315585;28;20046;-66
2024/01/07 00:45:29;;;;;;;4.78;2.95;;;;;;;6.63;79.11;99754.69;10317850;28;20818;-66
2024/01/07 00:50:31;;;;;;;3.33;2.72;;;;;;;6.82;77.92;99763.94;10336499;28;20046;-66
2024/01/07 00:55:32;;;;;;;4.18;2.63;;;;;;;6.88;77.69;99768.78;10342263;28;20057;-67
2024/01/07 01:00:34;;;;;;;2.92;2.65;;;;;;;6.69;78.09;99774.56;10317947;28;20056;-66
2024/01/07 01:05:36;;;;;;;2.60;2.20;;;;;;;6.67;77.97;99769.38;10318883;28;20046;-67
2024/01/07 01:10:37;;;;;;;2.78;2.20;;;;;;;6.80;77.32;99769.34;10327518;28;20634;-64
2024/01/07 01:15:38;;;;;;;2.95;2.45;;;;;;;6.81;77.76;99786.06;10353756;28;20515;-65
2024/01/07 01:20:40;;;;;;;2.92;2.63;;;;;;;6.87;77.74;99796.19;10341261;28;20058;-66
2024/01/07 01:25:41;;;;;;;2.92;2.55;;;;;;;6.73;76.89;99798.03;10336635;28;20057;-65
2024/01/07 01:30:44;;;;;;;2.58;2.10;;;;;;;6.72;77.83;99792.84;10327676;28;20511;-66
2024/01/07 01:35:45;;;;;;;3.10;2.22;;;;;;;6.72;77.39;99793.72;10323157;28;20064;-66
2024/01/07 01:40:54;;;;;;;2.17;1.98;;;;;;;6.72;77.44;99812.22;10335265;28;20058;-67
2024/01/07 01:45:56;;;;;;;2.80;2.22;;;;;;;6.64;77.88;99822.50;10342843;28;20057;-64
2024/01/07 01:50:57;;;;;;;3.38;2.35;;;;;;;6.48;78.68;99808.66;10339585;28;20104;-65
2024/01/07 01:56:02;;;;;;;2.60;2.40;;;;;;;6.54;78.75;99809.09;10330798;28;20583;-65
2024/01/07 02:01:03;;;;;;;2.85;2.03;;;;;;;6.69;78.01;99806.28;10337174;28;20068;-66
2024/01/07 02:06:06;;;;;;;2.67;2.20;;;;;;;6.76;77.35;99812.84;10324861;28;20529;-66
2024/01/07 02:11:18;;;;;;;3.08;2.30;;;;;;;6.78;77.71;99815.38;10325008;28;20050;-65
2024/01/07 02:16:19;;;;;;;2.42;1.80;;;;;;;6.65;78.36;99818.91;10324369;28;20131;-66
2024/01/07 02:21:21;;;;;;;2.60;1.90;;;;;;;6.71;78.55;99822.88;10324385;28;20168;-66
2024/01/07 02:26:24;;;;;;;2.30;2.00;;;;;;;6.70;78.60;99824.69;10321764;28;20042;-66
2024/01/07 02:31:25;;;;;;;2.58;2.17;;;;;;;6.56;78.38;99790.47;10324246;28;20053;-65
2024/01/07 02:36:27;;;;;;;2.60;2.40;;;;;;;6.79;78.25;99825.00;10322397;28;20151;-67
2024/01/07 02:41:28;;;;;;;2.92;1.90;;;;;;;6.81;78.04;99823.09;10328693;28;20061;-66
2024/01/07 02:46:30;;;;;;;2.58;1.98;;;;;;;6.60;79.08;99830.75;10323940;28;20137;-67
2024/01/07 02:51:31;;;;;;;3.03;2.28;;;;;;;6.54;79.13;99808.22;10325341;28;20054;-66
2024/01/07 02:56:33;;;;;;;3.28;1.92;;;;;;;6.84;79.04;99830.81;10334910;28;20580;-63
2024/01/07 03:01:40;;;;;;;2.30;2.00;;;;;;;6.43;80.07;99830.16;10351144;28;20503;-66
2024/01/07 03:06:41;;;;;;;3.05;2.28;;;;;;;6.59;79.77;99840.50;10325106;28;20167;-66
2024/01/07 03:11:43;;;;;;;3.67;2.60;;;;;;;6.53;80.13;99838.25;10344610;28;20061;-64
2024/01/07 03:16:44;;;;;;;3.78;3.00;;;;;;;6.21;80.77;99841.34;10319490;28;20057;-67
2024/01/07 03:21:48;;;;;;;3.22;2.63;;;;;;;6.15;82.33;99844.41;10319399;28;20132;-66
2024/01/07 03:26:50;;;;;;;2.50;2.15;;;;;;;6.34;81.84;99844.84;10323767;28;20858;-66
2024/01/07 03:31:52;;;;;;;3.47;3.03;;;;;;;6.51;82.09;99842.81;10324701;28;20141;-65
2024/01/07 03:36:54;;;;;;;3.75;2.80;;;;;;;6.65;81.19;99848.00;10317113;28;20042;-68
2024/01/07 03:41:56;;;;;;;3.45;2.67;;;;;;;6.65;81.04;99853.28;10318591;28;20046;-66
2024/01/07 03:46:57;;;;;;;3.58;2.78;;;;;;;6.67;81.81;99859.31;10334454;28;20643;-65
2024/01/07 03:51:59;;;;;;;3.67;2.85;;;;;;;6.67;80.99;99855.81;10323175;28;20046;-65
2024/01/07 03:57:00;;;;;;;3.53;2.38;;;;;;;6.50;81.15;99822.59;10321956;28;20062;-66
2024/01/07 04:02:02;;;;;;;3.38;2.92;;;;;;;6.64;81.16;99862.16;10325858;28;20145;-67
2024/01/07 04:07:04;;;;;;;3.85;2.85;;;;;;;6.63;81.72;99871.03;10323535;28;20046;-66
2024/01/07 04:12:06;;;;;;;4.32;3.25;;;;;;;6.66;81.44;99870.81;10319247;28;20085;-65
2024/01/07 04:17:08;;;;;;;3.95;3.03;;;;;;;6.46;81.27;99868.75;10323735;28;20054;-66
2024/01/07 04:22:09;;;;;;;5.32;4.20;;;;;;;6.47;82.13;99866.00;10342786;28;20092;-66
2024/01/07 04:27:11;;;;;;;5.65;4.70;;;;;;;6.61;82.04;99878.25;10321944;28;20712;-67
2024/01/07 04:32:12;;;;;;;5.82;4.63;;;;;;;6.69;82.13;99881.19;10319709;28;20862;-65
2024/01/07 04:37:14;;;;;;;7.20;5.88;;;;;;;6.81;82.20;99889.22;10318031;28;20062;-66
2024/01/07 04:42:17;;;;;;;6.75;5.63;;;;;;;6.75;81.24;99894.97;10317150;28;20054;-66
2024/01/07 04:47:30;;;;;;;6.90;5.82;;;;;;;6.75;81.37;99910.84;10322512;28;20061;-66
2024/01/07 04:52:31;;;;;;;7.00;6.13;;;;;;;6.67;82.00;99909.56;10315923;28;20069;-66
2024/01/07 04:57:33;;;;;;;6.93;6.00;;;;;;;6.63;82.05;99917.81;10333105;28;20518;-66
2024/01/07 05:02:35;;;;;;;7.38;6.03;;;;;;;6.62;82.36;99924.91;10321487;28;20042;-67
2024/01/07 05:07:37;;;;;;;9.68;7.43;;;;;;;6.75;81.73;99932.00;10326083;28;20049;-65
2024/01/07 05:12:38;;;;;;;8.05;7.20;;;;;;;6.81;81.68;99926.28;10319960;28;20054;-65
2024/01/07 05:17:42;;;;;;;9.45;7.97;;;;;;;6.82;80.66;99938.56;10320510;28;20136;-67
2024/01/07 05:22:44;;;;;;;7.93;7.15;;;;;;;6.82;79.30;99954.44;10366347;28;20115;-67
2024/01/07 05:27:45;;;;;;;7.10;6.40;;;;;;;6.86;78.02;99956.75;10316574;28;20747;-67
2024/01/07 05:32:47;;;;;;;5.47;4.97;;;;;;;6.82;77.00;99967.66;10328348;28;20053;-66
2024/01/07 05:37:52;;;;;;;5.57;5.05;;;;;;;6.70;76.31;99967.53;10318455;28;20611;-66
2024/01/07 05:42:54;;;;;;;5.53;4.85;;;;;;;6.72;76.43;99981.53;10336358;28;20077;-66
2024/01/07 05:47:55;;;;;;;5.55;4.78;;;;;;;6.65;76.48;99974.97;10322421;28;20061;-66
2024/01/07 05:52:57;;;;;;;6.05;5.15;;;;;;;6.50;76.52;99989.19;10324727;28;20422;-65
2024/01/07 05:57:59;;;;;;;7.13;5.95;;;;;;;6.45;76.43;99992.16;10340295;28;20108;-67
2024/01/07 06:03:00;;;;;;;6.70;5.93;;;;;;;6.53;75.93;99997.78;10362049;28;20042;-65
2024/01/07 06:08:02;;;;;;;6.78;6.10;;;;;;;6.45;74.71;99994.81;10299449;28;20142;-67
2024/01/07 06:13:05;;;;;;;7.25;6.47;;;;;;;6.13;75.62;100000.44;10331000;28;20637;-66
2024/01/07 06:18:07;;;;;;;7.47;6.63;;;;;;;6.21;75.80;100009.69;10330286;28;20728;-65
2024/01/07 06:23:08;;;;;;;7.75;6.50;;;;;;;6.38;75.53;100033.22;10326752;28;20054;-64
2024/01/07 06:28:10;;;;;;;8.07;6.70;;;;;;;6.39;74.80;100044.63;10324740;28;20073;-64
2024/01/07 06:33:13;;;;;;;7.97;6.82;;;;;;;6.30;75.25;100033.69;10327644;28;20046;-65
2024/01/07 06:38:15;;;;;;;8.23;5.90;;;;;;;6.37;74.82;100058.78;10320501;28;20055;-66
2024/01/07 06:43:16;;;;;;;6.85;5.75;;;;;;;6.47;74.16;100068.75;10322447;28;20045;-66
2024/01/07 06:48:17;;;;;;;7.05;6.35;;;;;;;6.34;75.04;100066.91;10316414;28;20058;-65
2024/01/07 06:53:19;;;;;;;8.40;7.50;;;;;;;6.42;75.11;100076.16;10323156;28;20054;-67
2024/01/07 06:58:20;;;;;;;9.10;7.80;;;;;;;6.41;74.51;100085.00;10311035;28;20210;-64
2024/01/07 07:03:22;;;;;;;8.50;7.20;;;;;;;6.33;74.10;100083.72;10326018;28;20046;-66
2024/01/07 07:08:23;;;;;;;8.93;8.02;;;;;;;6.31;73.32;100080.34;10321350;28;20057;-66
2024/01/07 07:13:25;;;;;;;8.50;7.63;;;;;;;6.16;73.83;100097.19;10325930;28;20618;-65
2024/01/07 07:18:28;;;;;;;9.30;7.60;;;;;;;6.20;74.24;100101.34;10316522;28;20046;-67
2024/01/07 07:23:30;;;;;;;9.20;8.23;;;;;;;6.31;72.74;100120.00;10324159;28;20512;-66
2024/01/07 07:28:32;;;;;;;9.88;8.07;;;;;;;6.29;72.18;100128.97;10314945;28;20129;-66
2024/01/07 07:33:33;;;;;;;10.60;8.13;;;;;;;6.24;71.68;100139.00;10319943;28;20108;-66
2024/01/07 07:38:35;;;;;;;9.30;7.47;;;;;;;6.09;72.41;100140.81;10351788;28;20156;-67
2024/01/07 07:43:37;;;;;;;9.48;7.97;;;;;;;6.19;72.58;100160.44;10314341;28;20049;-67
2024/01/07 07:48:39;;;;;;;7.90;7.10;;;;;;;6.10;71.99;100175.06;10342580;28;20053;-67
2024/01/07 07:53:41;;;;;;;9.32;7.57;;;;;;;6.15;71.11;100172.16;10322606;28;20063;-67
2024/01/07 07:58:42;;;;;;;11.30;8.27;;;;;;;6.17;71.80;100186.09;10317459;28;20054;-65
2024/01/07 08:03:44;;;;;;;9.30;8.13;;;;;;;5.99;72.00;100190.75;10321979;28;20161;-66
2024/01/07 08:08:46;;;;;;;9.68;8.63;;;;;;;5.91;72.11;100204.41;10319037;28;20046;-67
2024/01/07 08:13:50;;;;;;;11.47;8.17;;;;;;;5.94;71.79;100204.22;10319759;28;20736;-66
2024/01/07 08:18:56;;;;;;;10.05;8.77;;;;;;;5.95;72.57;100218.28;10338547;28;20091;-66
2024/01/07 08:23:58;;;;;;;10.45;8.73;;;;;;;5.79;72.41;100206.00;10317221;28;20570;-67
2024/01/07 08:29:03;;;;;;;10.55;8.57;;;;;;;5.88;71.72;100217.81;10317250;28;20053;-65
2024/01/07 08:34:05;;;;;;;10.70;9.00;;;;;;;5.94;71.91;100228.00;10324397;28;20057;-65
2024/01/07 08:39:07;;;;;;;11.45;9.50;;;;;;;5.78;72.10;100220.19;10325495;28;20254;-66
2024/01/07 08:44:09;;;;;;;11.25;9.02;;;;;;;5.84;71.41;100232.16;10318378;28;20053;-65
2024/01/07 08:49:11;;;;;;;10.98;9.02;;;;;;;5.96;72.24;100241.97;10354653;28;20057;-66
2024/01/07 08:54:13;;;;;;;10.70;8.68;;;;;;;5.95;72.12;100250.00;10324516;28;22320;-65
2024/01/07 08:59:14;;;;;;;10.80;8.55;;;;;;;6.06;71.25;100258.13;10323901;28;20053;-66
2024/01/07 09:04:19;;;;;;;10.23;8.77;;;;;;;6.05;69.98;100256.44;10339341;28;20054;-67
2024/01/07 09:09:20;;;;;;;10.73;8.73;;;;;;;5.95;70.54;100266.69;10311364;28;20571;-66
2024/01/07 09:14:22;;;;;;;11.10;8.82;;;;;;;5.86;70.18;100274.34;10367964;28;20672;-66
2024/01/07 09:19:23;;;;;;;10.35;8.40;;;;;;;5.62;68.75;100253.75;10338611;28;20081;-66
2024/01/07 09:24:25;;;;;;;10.73;8.57;;;;;;;5.70;69.44;100255.91;10313490;28;20057;-62
2024/01/07 09:29:29;;;;;;;9.73;7.88;;;;;;;5.95;68.71;100303.69;10305027;28;20084;-67
2024/01/07 09:34:31;;;;;;;11.02;8.32;;;;;;;6.03;68.82;100307.69;10332830;28;20046;-65
2024/01/07 09:39:33;;;;;;;7.90;7.07;;;;;;;5.91;67.72;100314.53;10338953;28;20048;-65
2024/01/07 09:44:35;;;;;;;7.63;6.72;;;;;;;5.77;66.75;100304.78;10342518;28;20062;-66
2024/01/07 09:49:39;;;;;;;7.20;6.35;;;;;;;5.84;67.04;100316.72;10323455;28;20620;-66
2024/01/07 09:54:40;;;;;;;6.00;5.30;;;;;;;5.71;66.83;100321.00;10327526;28;20792;-66
2024/01/07 09:59:43;;;;;;;7.35;5.85;;;;;;;5.74;67.08;100326.13;10328107;28;20843;-66
2024/01/07 10:04:47;;;;;;;6.30;5.25;;;;;;;5.76;66.38;100334.78;10322470;28;20124;-66
2024/01/07 10:09:48;;;;;;;6.65;6.00;;;;;;;5.66;66.86;100348.53;10327809;28;20112;-67
2024/01/07 10:14:50;;;;;;;5.43;4.85;;;;;;;5.70;66.47;100348.34;10322325;28;20052;-66
2024/01/07 10:19:52;;;;;;;5.63;5.13;;;;;;;5.52;66.34;100332.63;10327006;28;20278;-65
2024/01/07 10:24:54;;;;;;;5.35;4.82;;;;;;;5.62;66.27;100347.00;10326892;28;20096;-66
2024/01/07 10:29:58;;;;;;;6.03;5.18;;;;;;;5.80;68.26;100336.31;10336882;28;20077;-68
2024/01/07 10:35:08;;;;;;;5.60;4.80;;;;;;;5.94;66.77;100338.97;10319136;28;20057;-66
2024/01/07 10:40:11;;;;;;;6.10;4.88;;;;;;;5.98;65.64;100350.25;10343315;28;20081;-68
2024/01/07 10:45:14;;;;;;;6.35;5.65;;;;;;;5.85;66.54;100339.53;10323651;28;20053;-66
2024/01/07 10:50:17;;;;;;;6.82;5.82;;;;;;;5.98;65.06;100351.09;10344472;28;20590;-65
2024/01/07 10:55:19;;;;;;;5.88;5.15;;;;;;;5.92;64.18;100338.22;10324919;28;20459;-67
2024/01/07 11:00:20;;;;;;;5.80;5.20;;;;;;;5.99;65.50;100336.94;10321666;28;20137;-69
2024/01/07 11:05:40;;;;;;;7.10;5.72;;;;;;;6.11;64.38;100350.34;10319556;28;20076;-66
2024/01/07 11:10:49;;;;;;;6.93;6.30;;;;;;;6.08;63.41;100355.81;10322975;28;20251;-67
2024/01/07 11:15:54;;;;;;;6.55;5.82;;;;;;;5.97;63.54;100357.31;10324639;28;20050;-66
2024/01/07 11:21:03;;;;;;;6.50;5.47;;;;;;;5.87;63.69;100368.50;10349631;28;20056;-66
2024/01/07 11:26:04;;;;;;;6.82;5.72;;;;;;;5.94;63.32;100375.97;10340156;28;20059;-68
2024/01/07 11:31:06;;;;;;;6.93;5.68;;;;;;;5.94;62.60;100372.47;10329536;28;20495;-67
2024/01/07 11:36:10;;;;;;;6.22;5.55;;;;;;;5.69;62.57;100378.34;10317126;28;20112;-67
2024/01/07 11:41:13;;;;;;;6.55;5.78;;;;;;;5.62;63.48;100360.22;10327543;28;20135;-66
2024/01/07 11:46:16;;;;;;;6.25;5.57;;;;;;;5.63;63.83;100371.63;10330120;28;20342;-66
2024/01/07 11:51:18;;;;;;;5.95;5.35;;;;;;;5.62;62.77;100373.41;10328897;28;20199;-65
2024/01/07 11:56:20;;;;;;;7.57;6.60;;;;;;;5.59;63.22;100384.16;10315123;28;20367;-67
2024/01/07 12:01:22;;;;;;;8.23;6.63;;;;;;;5.65;63.98;100391.72;10332905;28;20375;-66
2024/01/07 12:06:24;;;;;;;9.07;6.88;;;;;;;5.72;63.31;100386.97;10331571;28;20068;-67
2024/01/07 12:11:26;;;;;;;6.90;5.63;;;;;;;5.50;63.60;100384.69;10335037;28;20051;-67
2024/01/07 12:16:29;;;;;;;5.78;5.18;;;;;;;5.59;62.98;100389.44;10322334;28;20073;-65
2024/01/07 12:21:30;;;;;;;7.60;5.90;;;;;;;5.62;62.06;100388.41;10317818;28;20061;-67
2024/01/07 12:26:33;;;;;;;8.50;6.75;;;;;;;5.51;62.27;100399.59;10316656;28;20092;-65
2024/01/07 12:31:35;;;;;;;8.98;5.80;;;;;;;5.43;62.36;100401.81;10341548;28;20109;-66
2024/01/07 12:36:38;;;;;;;6.97;6.15;;;;;;;5.39;62.49;100413.47;10336589;28;20192;-67
2024/01/07 12:41:41;;;;;;;6.20;5.47;;;;;;;5.50;62.22;100416.38;10321592;28;20207;-66
2024/01/07 12:46:44;;;;;;;5.85;5.30;;;;;;;5.29;62.07;100416.63;10320397;28;20042;-67
2024/01/07 12:51:47;;;;;;;6.50;5.22;;;;;;;5.33;62.54;100422.63;10325951;28;20057;-67
2024/01/07 12:56:48;;;;;;;8.15;6.50;;;;;;;5.24;62.44;100423.09;10324306;28;20058;-67
2024/01/07 13:01:51;;;;;;;7.38;6.65;;;;;;;5.38;62.30;100430.28;10323301;28;20062;-66
2024/01/07 13:06:55;;;;;;;8.10;5.70;;;;;;;5.06;62.48;100394.19;10319484;28;20050;-66
2024/01/07 13:11:57;;;;;;;6.00;5.40;;;;;;;5.14;61.43;100430.69;10341815;28;20058;-67
2024/01/07 13:16:59;;;;;;;6.93;4.97;;;;;;;5.12;61.43;100441.34;10323020;28;20046;-67
2024/01/07 13:22:01;;;;;;;6.53;5.03;;;;;;;5.20;61.99;100437.44;10331132;28;20045;-67
2024/01/07 13:27:03;;;;;;;5.30;4.78;;;;;;;5.25;62.10;100444.13;10336923;28;20057;-66
2024/01/07 13:32:05;;;;;;;8.40;5.72;;;;;;;5.01;64.00;100427.03;10328963;28;20232;-67
2024/01/07 13:37:07;;;;;;;6.53;5.75;;;;;;;5.11;61.23;100446.69;10327761;28;20081;-66
2024/01/07 13:42:09;;;;;;;7.97;5.35;;;;;;;5.13;60.73;100450.09;10327545;28;20058;-66
2024/01/07 13:47:10;;;;;;;6.15;4.82;;;;;;;5.13;60.55;100458.88;10324011;28;20276;-66
2024/01/07 13:52:12;;;;;;;6.07;4.55;;;;;;;4.89;59.83;100463.66;10327146;28;20632;-64
2024/01/07 13:57:17;;;;;;;8.73;5.47;;;;;;;4.60;60.18;100444.97;10326596;28;20042;-64
2024/01/07 14:02:22;;;;;;;5.50;4.40;;;;;;;4.78;59.55;100468.69;10323810;28;20419;-63
2024/01/07 14:07:26;;;;;;;6.40;4.60;;;;;;;4.77;59.85;100477.50;10327279;28;20456;-63
2024/01/07 14:12:28;;;;;;;5.67;5.13;;;;;;;4.74;58.78;100490.88;10328820;28;21387;-63
2024/01/07 14:17:30;;;;;;;6.25;4.40;;;;;;;4.70;59.22;100513.03;10351977;28;20038;-63
2024/01/07 14:22:31;;;;;;;6.25;4.25;;;;;;;4.77;58.91;100511.81;10328734;28;20057;-65
2024/01/07 14:27:33;;;;;;;4.88;3.88;;;;;;;4.80;58.25;100527.47;10326246;28;20050;-64
2024/01/07 14:32:36;;;;;;;4.65;3.30;;;;;;;4.64;57.67;100521.28;10321492;28;20042;-63
2024/01/07 14:37:39;;;;;;;4.35;3.38;;;;;;;4.72;57.08;100529.66;10328080;28;20045;-63
2024/01/07 14:42:41;;;;;;;5.13;3.78;;;;;;;4.83;56.55;100540.50;10327584;28;20042;-64
2024/01/07 14:47:42;;;;;;;5.00;3.40;;;;;;;4.87;55.85;100539.41;10347881;28;20057;-64
2024/01/07 14:52:44;;;;;;;3.80;2.75;;;;;;;4.62;54.64;100550.38;10327326;28;20072;-63
2024/01/07 14:57:46;;;;;;;2.60;2.15;;;;;;;4.56;54.27;100564.75;10318911;28;20068;-62
2024/01/07 15:02:47;;;;;;;3.83;2.88;;;;;;;4.56;54.08;100575.28;10351022;28;20061;-61
2024/01/07 15:07:48;;;;;;;2.50;2.30;;;;;;;4.39;54.04;100577.91;10325997;28;20141;-60
2024/01/07 15:12:52;;;;;;;2.90;2.33;;;;;;;4.35;53.68;100576.34;10325823;28;20050;-63
2024/01/07 15:18:04;;;;;;;2.97;2.38;;;;;;;4.30;54.44;100602.06;10313922;28;20050;-63
2024/01/07 15:23:05;;;;;;;2.42;2.17;;;;;;;4.31;54.26;100609.03;10322066;28;20715;-61
2024/01/07 15:28:07;;;;;;;1.98;1.60;;;;;;;4.17;53.39;100615.81;10327476;28;20054;-62
2024/01/07 15:33:09;;;;;;;2.20;1.73;;;;;;;3.99;53.74;100635.16;10328943;28;20053;-63
2024/01/07 15:38:12;;;;;;;3.10;2.08;;;;;;;3.81;54.71;100644.75;10324768;28;20640;-63
2024/01/07 15:43:15;;;;;;;2.38;2.05;;;;;;;3.81;53.55;100650.88;10323669;28;20045;-63
2024/01/07 15:48:16;;;;;;;1.77;1.60;;;;;;;3.86;54.06;100653.31;10333845;28;20205;-63
2024/01/07 15:53:18;;;;;;;3.03;1.90;;;;;;;3.58;52.38;100658.97;10350615;28;20058;-60
2024/01/07 15:58:19;;;;;;;4.03;3.72;;;;;;;3.51;52.41;100680.31;10322664;28;20639;-63
2024/01/07 16:03:22;;;;;;;1.90;1.50;;;;;;;3.42;52.61;100678.06;10320167;28;20054;-60
2024/01/07 16:08:28;;;;;;;1.75;1.48;;;;;;;3.42;52.65;100685.13;10322367;28;20093;-61
2024/01/07 16:13:29;;;;;;;3.05;2.55;;;;;;;3.47;52.80;100685.78;10325529;28;20064;-64
2024/01/07 16:18:31;;;;;;;2.13;1.80;;;;;;;3.15;50.91;100683.63;10329387;28;20555;-62
2024/01/07 16:23:35;;;;;;;2.65;2.15;;;;;;;2.93;52.41;100672.31;10325076;28;20056;-61
2024/01/07 16:28:37;;;;;;;1.75;1.20;;;;;;;3.03;52.50;100697.28;10331485;28;20492;-62
2024/01/07 16:33:39;;;;;;;1.63;1.30;;;;;;;3.16;53.12;100724.78;10329598;28;20132;-61
2024/01/07 16:38:40;;;;;;;1.10;0.90;;;;;;;3.15;51.93;100730.09;10324601;28;20080;-62
2024/01/07 16:43:41;;;;;;;1.70;1.20;;;;;;;3.15;52.14;100741.50;10329990;28;20069;-61
2024/01/07 16:48:43;;;;;;;2.58;0.98;;;;;;;3.07;50.89;100746.22;10327344;28;20042;-60
2024/01/07 16:54:05;;;;;;;1.67;1.00;;;;;;;2.92;51.67;100725.81;10322593;28;20049;-62
2024/01/07 16:59:06;;;;;;;1.65;1.15;;;;;;;3.02;51.58;100745.56;10323751;28;20642;-62
2024/01/07 17:04:08;;;;;;;1.00;0.88;;;;;;;2.97;50.92;100747.50;10326340;28;20054;-61
2024/01/07 17:09:10;;;;;;;1.40;0.90;;;;;;;2.86;50.56;100760.25;10324045;28;20181;-61
2024/01/07 17:14:11;;;;;;;2.88;0.98;;;;;;;2.92;50.48;100762.63;10320550;28;20121;-60
2024/01/07 17:19:13;;;;;;;1.90;1.42;;;;;;;2.81;49.98;100769.16;10323726;28;20054;-61
2024/01/07 17:24:15;;;;;;;1.40;0.90;;;;;;;2.86;50.28;100770.78;10323639;28;20061;-60
2024/01/07 17:29:16;;;;;;;1.05;0.80;;;;;;;2.72;50.67;100779.19;10325225;28;20216;-62
2024/01/07 17:34:18;;;;;;;2.15;1.10;;;;;;;2.67;50.24;100786.41;10354417;28;20057;-62
2024/01/07 17:39:23;;;;;;;1.15;0.90;;;;;;;2.58;51.88;100777.09;10327011;28;20521;-60
2024/01/07 17:44:24;;;;;;;4.53;4.13;;;;;;;2.65;50.54;100795.19;10350538;28;20060;-62
2024/01/07 17:49:26;;;;;;;1.75;1.20;;;;;;;2.73;49.96;100792.28;10319141;28;20419;-60
2024/01/07 17:54:28;;;;;;;1.80;0.80;;;;;;;2.89;51.35;100807.47;10356759;28;20144;-62
2024/01/07 17:59:33;;;;;;;1.30;1.10;;;;;;;2.89;51.88;100818.81;10326888;28;20696;-62
2024/01/07 18:04:43;;;;;;;1.83;1.20;;;;;;;2.91;50.55;100818.75;10314278;28;20997;-62
2024/01/07 18:09:45;;;;;;;1.63;1.05;;;;;;;2.81;50.78;100811.25;10338185;28;20395;-63
2024/01/07 18:14:49;;;;;;;1.20;0.98;;;;;;;2.90;51.61;100824.94;10331595;28;20050;-61
2024/01/07 18:19:50;;;;;;;1.70;1.60;;;;;;;2.74;49.82;100819.44;10329872;28;20487;-63
2024/01/07 18:24:51;;;;;;;1.23;0.82;;;;;;;2.72;50.12;100830.00;10325451;28;20061;-62
2024/01/07 18:29:56;;;;;;;1.00;0.75;;;;;;;2.74;50.28;100825.53;10324208;28;20073;-63
2024/01/07 18:34:58;;;;;;;1.13;0.85;;;;;;;2.77;50.68;100829.84;10336183;28;20064;-63
2024/01/07 18:40:01;;;;;;;1.52;0.95;;;;;;;2.77;50.74;100838.56;10344487;28;20094;-62
2024/01/07 18:45:02;;;;;;;1.10;0.90;;;;;;;2.85;50.63;100837.41;10325026;28;20058;-62
2024/01/07 18:50:05;;;;;;;1.35;1.25;;;;;;;2.94;50.26;100847.56;10348554;28;20056;-61
2024/01/07 18:55:09;;;;;;;1.52;0.80;;;;;;;2.93;51.03;100851.13;10329311;28;20054;-63
2024/01/07 19:00:11;;;;;;;1.60;1.05;;;;;;;2.90;49.71;100848.59;10326221;28;20048;-63
2024/01/07 19:05:13;;;;;;;3.35;1.30;;;;;;;2.96;50.54;100862.38;10345156;28;20091;-62
2024/01/07 19:10:15;;;;;;;2.47;1.52;;;;;;;2.96;50.94;100851.00;10322343;28;20056;-62
2024/01/07 19:15:17;;;;;;;1.58;0.98;;;;;;;3.02;50.13;100856.03;10325443;28;20081;-61
2024/01/07 19:20:23;;;;;;;1.95;0.88;;;;;;;3.07;49.32;100863.75;10324805;28;20064;-60
2024/01/07 19:25:26;;;;;;;1.25;1.00;;;;;;;3.13;50.54;100866.97;10326731;28;20077;-62
2024/01/07 19:30:31;;;;;;;1.67;1.08;;;;;;;3.17;50.01;100873.84;10342919;28;20054;-65
2024/01/07 19:35:34;;;;;;;;;;;;;;;3.10;49.69;100874.97;10325338;28;20092;-62
2024/01/07 19:40:36;;;;;;;2.20;1.52;;;;;;;3.03;50.71;100873.50;10324165;28;19969;-62
2024/01/07 19:45:40;;;;;;;2.03;1.00;;;;;;;2.97;51.27;100860.59;10326783;28;20057;-63
2024/01/07 19:50:46;;;;;;;1.33;0.93;;;;;;;3.02;50.67;100871.81;10327275;28;20760;-63
2024/01/07 19:55:51;;;;;;;2.17;1.08;;;;;;;2.98;51.84;100875.47;10326554;28;20050;-60
2024/01/07 20:00:53;;;;;;;1.80;1.10;;;;;;;3.03;51.12;100876.13;10347859;28;20068;-62
2024/01/07 20:05:54;;;;;;;1.13;0.60;;;;;;;3.06;51.30;100873.38;10311579;28;20090;-61
2024/01/07 20:10:57;;;;;;;2.60;1.17;;;;;;;3.08;51.12;100871.56;10325652;28;20042;-63
2024/01/07 20:16:02;;;;;;;1.40;1.20;;;;;;;2.89;50.94;100875.84;10336599;28;20086;-59
2024/01/07 20:21:04;;;;;;;1.08;0.90;;;;;;;2.96;51.58;100885.22;10324482;28;20061;-63
2024/01/07 20:26:05;;;;;;;1.30;1.10;;;;;;;3.03;51.84;100888.44;10355318;28;20693;-62
2024/01/07 20:31:08;;;;;;;2.22;1.23;;;;;;;3.09;51.22;100889.06;10320424;28;20229;-62
2024/01/07 20:36:14;;;;;;;2.13;1.02;;;;;;;3.00;51.20;100868.38;10327976;28;20215;-63
2024/01/07 20:41:19;;;;;;;1.35;0.90;;;;;;;3.04;51.37;100872.59;10332218;28;20196;-63
2024/01/07 20:46:21;;;;;;;1.55;1.10;;;;;;;3.07;50.71;100874.25;10326394;28;20062;-62
2024/01/07 20:51:24;;;;;;;1.20;0.93;;;;;;;2.76;51.24;100894.72;10346344;28;20046;-61
2024/01/07 20:56:25;;;;;;;1.92;1.08;;;;;;;2.82;50.32;100886.59;10342129;28;20100;-62
2024/01/07 21:01:29;;;;;;;1.75;1.40;;;;;;;2.83;50.44;100893.53;10320275;28;20132;-63
2024/01/07 21:06:31;;;;;;;1.63;1.15;;;;;;;2.86;51.54;100899.63;10348131;28;20046;-61
2024/01/07 21:11:33;;;;;;;1.10;1.00;;;;;;;2.90;50.81;100898.56;10322557;28;20675;-62
2024/01/07 21:16:34;;;;;;;2.10;0.98;;;;;;;2.92;51.54;100902.00;10317078;28;20050;-62
2024/01/07 21:21:36;;;;;;;1.20;0.70;;;;;;;2.80;50.76;100898.06;10303868;28;20073;-62
2024/01/07 21:26:41;;;;;;;2.05;1.05;;;;;;;2.58;51.04;100869.09;10348163;28;20394;-61
2024/01/07 21:31:42;;;;;;;0.80;0.60;;;;;;;2.80;50.77;100900.69;10312033;28;20057;-62
2024/01/07 21:36:43;;;;;;;0.70;0.60;;;;;;;2.62;51.41;100910.97;10325772;28;20054;-60
2024/01/07 21:41:46;;;;;;;1.30;0.68;;;;;;;2.75;51.09;100889.50;10329331;28;20056;-59
2024/01/07 21:46:47;;;;;;;1.13;0.65;;;;;;;2.96;52.05;100903.63;10342928;28;20049;-61
2024/01/07 21:51:49;;;;;;;1.80;0.88;;;;;;;2.97;51.54;100905.31;10342254;28;20038;-61
2024/01/07 21:56:52;;;;;;;0.70;0.50;;;;;;;2.92;50.88;100902.00;10343867;28;20049;-60
2024/01/07 22:01:55;;;;;;;0.70;0.50;;;;;;;2.94;50.97;100900.16;10362227;28;20057;-62
2024/01/07 22:06:57;;;;;;;1.27;0.90;;;;;;;2.97;51.21;100906.19;10324588;28;20092;-61
2024/01/07 22:11:58;;;;;;;1.42;0.70;;;;;;;2.85;51.33;100892.63;10350172;28;20061;-60
2024/01/07 22:17:00;;;;;;;1.27;0.85;;;;;;;2.96;51.15;100922.88;10356811;28;20045;-61
2024/01/07 22:22:01;;;;;;;0.82;0.60;;;;;;;3.04;51.90;100917.31;10324477;28;20062;-60
2024/01/07 22:27:06;;;;;;;0.80;0.60;;;;;;;3.06;50.60;100926.00;10358444;28;20144;-62
2024/01/07 22:32:07;;;;;;;1.23;0.63;;;;;;;3.04;51.77;100919.94;10322701;28;20200;-62
2024/01/07 22:37:08;;;;;;;0.50;0.30;;;;;;;3.11;50.91;100926.69;10332481;28;20057;-61
2024/01/07 22:42:10;;;;;;;0.82;0.57;;;;;;;3.06;51.15;100910.22;10324020;28;21450;-62
2024/01/07 22:47:12;;;;;;;1.05;0.80;;;;;;;3.17;50.53;100921.19;10359238;28;20525;-61
2024/01/07 22:52:14;;;;;;;0.45;0.20;;;;;;;3.02;50.57;100929.69;10337323;28;20049;-62
2024/01/07 22:57:16;;;;;;;1.15;0.40;;;;;;;3.06;50.29;100926.00;10345698;28;20103;-60
2024/01/07 23:02:18;;;;;;;0.90;0.50;;;;;;;3.11;50.21;100917.94;10338232;28;20106;-61
2024/01/07 23:07:20;;;;;;;0.80;0.60;;;;;;;3.12;50.28;100931.03;10324664;28;20065;-61
2024/01/07 23:12:21;;;;;;;0.70;0.43;;;;;;;3.06;50.07;100933.03;10334081;28;20059;-61
2024/01/07 23:17:23;;;;;;;0.82;0.52;;;;;;;3.07;49.51;100935.59;10333432;28;20053;-61
2024/01/07 23:22:25;;;;;;;0.73;0.32;;;;;;;3.04;50.49;100930.47;10325629;28;20046;-60
2024/01/07 23:27:28;;;;;;;0.73;0.40;;;;;;;2.91;50.49;100897.66;10326567;28;20132;-61